createdAt,value
2023-04-17T00:00:03.691Z,81.37
2023-04-17T00:01:50.301Z,81.53
2023-04-17T00:03:19.769Z,81.81
2023-04-17T00:05:00.681Z,81.92
2023-04-17T00:06:34.164Z,81.68
2023-04-17T00:08:07.415Z,81.33
2023-04-17T00:09:40.492Z,82.01
2023-04-17T00:11:10.040Z,82.07
2023-04-17T00:12:46.734Z,81.91
2023-04-17T00:14:10.816Z,82.15
2023-04-17T00:15:53.166Z,81.56
2023-04-17T00:17:33.808Z,82.05
2023-04-17T00:19:07.201Z,82.26
2023-04-17T00:21:02.205Z,81.77
2023-04-17T00:22:38.369Z,81.81
2023-04-17T00:24:03.077Z,82.14
2023-04-17T00:25:26.581Z,82.01
2023-04-17T00:27:01.402Z,82.01
2023-04-17T00:28:42.428Z,81.88
2023-04-17T00:30:18.629Z,82.22
2023-04-17T00:31:48.575Z,81.91
2023-04-17T00:33:21.723Z,82.10
2023-04-17T00:34:44.073Z,82.21
2023-04-17T00:36:19.453Z,82.20
2023-04-17T00:38:04.753Z,81.99
2023-04-17T00:39:37.948Z,81.87
2023-04-17T00:41:19.323Z,82.37
2023-04-17T00:42:59.940Z,82.07
2023-04-17T00:44:40.328Z,82.39
2023-04-17T00:46:18.279Z,82.61
2023-04-17T00:47:54.343Z,82.15
2023-04-17T00:49:27.502Z,82.50
2023-04-17T00:51:12.111Z,82.10
2023-04-17T00:52:33.863Z,81.99
2023-04-17T00:54:07.275Z,82.29
2023-04-17T00:55:31.809Z,82.31
2023-04-17T00:57:08.309Z,82.31
2023-04-17T00:58:54.378Z,82.37
2023-04-17T01:00:34.672Z,82.49
2023-04-17T01:02:20.334Z,82.34
2023-04-17T01:04:06.214Z,82.67
2023-04-17T01:05:42.040Z,82.28
2023-04-17T01:07:17.003Z,82.38
2023-04-17T01:09:11.227Z,82.50
2023-04-17T01:10:57.644Z,82.73
2023-04-17T01:12:33.501Z,82.67
2023-04-17T01:14:28.152Z,82.89
2023-04-17T01:16:01.785Z,82.60
2023-04-17T01:17:48.879Z,82.32
2023-04-17T01:19:33.371Z,82.66
2023-04-17T01:20:58.505Z,82.93
2023-04-17T01:22:39.142Z,82.69
2023-04-17T01:24:24.311Z,82.71
2023-04-17T01:26:11.913Z,82.65
2023-04-17T01:27:52.595Z,82.91
2023-04-17T01:29:37.621Z,82.89
2023-04-17T01:31:13.439Z,83.08
2023-04-17T01:32:54.773Z,82.98
2023-04-17T01:34:27.435Z,83.08
2023-04-17T01:36:08.980Z,83.05
2023-04-17T01:37:42.363Z,83.05
2023-04-17T01:39:27.411Z,83.07
2023-04-17T01:41:19.359Z,83.49
2023-04-17T01:43:03.746Z,83.52
2023-04-17T01:44:44.688Z,83.45
2023-04-17T01:46:25.427Z,83.23
2023-04-17T01:48:11.139Z,83.02
2023-04-17T01:49:47.180Z,83.15
2023-04-17T01:51:20.406Z,82.94
2023-04-17T01:53:01.460Z,83.09
2023-04-17T01:54:54.301Z,82.55
2023-04-17T01:56:18.796Z,82.97
2023-04-17T01:57:53.289Z,82.70
2023-04-17T01:59:26.182Z,82.95
2023-04-17T02:01:15.498Z,82.87
2023-04-17T02:03:00.975Z,83.22
2023-04-17T02:04:25.189Z,82.95
2023-04-17T02:06:06.536Z,83.31
2023-04-17T02:09:30.935Z,83.22
2023-04-17T02:11:16.310Z,83.08
2023-04-17T02:13:01.538Z,83.35
2023-04-17T02:14:28.933Z,83.09
2023-04-17T02:16:22.727Z,83.18
2023-04-17T02:18:08.028Z,83.38
2023-04-17T02:19:53.772Z,83.30
2023-04-17T02:21:26.448Z,83.66
2023-04-17T02:23:20.251Z,83.63
2023-04-17T02:25:05.374Z,83.40
2023-04-17T02:26:58.559Z,83.35
2023-04-17T02:28:31.902Z,83.44
2023-04-17T02:30:17.808Z,83.77
2023-04-17T02:31:54.022Z,83.83
2023-04-17T02:33:15.672Z,83.64
2023-04-17T02:35:11.165Z,83.51
2023-04-17T02:36:47.152Z,83.79
2023-04-17T02:38:20.635Z,83.65
2023-04-17T02:40:04.116Z,83.51
2023-04-17T02:41:39.724Z,83.63
2023-04-17T02:43:13.708Z,83.67
2023-04-17T02:44:49.314Z,83.80
2023-04-17T02:46:33.995Z,83.85
2023-04-17T02:48:15.644Z,83.61
2023-04-17T02:50:00.610Z,83.78
2023-04-17T02:51:45.843Z,84.02
2023-04-17T02:53:29.120Z,84.12
2023-04-17T02:55:18.825Z,83.70
2023-04-17T02:57:10.034Z,83.88
2023-04-17T02:58:45.781Z,83.71
2023-04-17T03:00:30.737Z,83.87
2023-04-17T03:02:05.185Z,83.98
2023-04-17T03:03:53.402Z,83.76
2023-04-17T03:05:41.804Z,83.77
2023-04-17T03:07:17.211Z,83.65
2023-04-17T03:08:53.493Z,83.90
2023-04-17T03:10:26.780Z,83.72
2023-04-17T03:12:00.751Z,83.85
2023-04-17T03:13:45.873Z,83.68
2023-04-17T03:15:31.829Z,83.84
2023-04-17T03:17:23.418Z,83.64
2023-04-17T03:19:12.115Z,83.57
2023-04-17T03:20:57.236Z,84.06
2023-04-17T03:22:38.090Z,83.86
2023-04-17T03:24:23.882Z,83.69
2023-04-17T03:26:06.811Z,84.21
2023-04-17T03:27:40.376Z,83.90
2023-04-17T03:29:14.362Z,83.99
2023-04-17T03:30:59.438Z,84.13
2023-04-17T03:32:32.886Z,84.13
2023-04-17T03:34:15.096Z,83.99
2023-04-17T03:35:48.498Z,83.26
2023-04-17T03:37:33.478Z,83.97
2023-04-17T03:39:06.611Z,84.13
2023-04-17T03:40:51.495Z,84.25
2023-04-17T03:42:32.944Z,83.75
2023-04-17T03:44:25.623Z,83.86
2023-04-17T03:46:11.705Z,83.85
2023-04-17T03:47:44.979Z,83.97
2023-04-17T03:49:29.137Z,83.95
2023-04-17T03:51:03.059Z,83.95
2023-04-17T03:52:55.118Z,84.24
2023-04-17T03:54:35.989Z,83.93
2023-04-17T03:56:12.678Z,84.23
2023-04-17T03:57:48.677Z,84.33
2023-04-17T03:59:13.299Z,84.32
2023-04-17T04:00:56.876Z,84.55
2023-04-17T04:02:34.261Z,84.48
2023-04-17T04:04:18.408Z,84.38
2023-04-17T04:05:55.873Z,84.37
2023-04-17T04:07:29.526Z,84.65
2023-04-17T04:09:06.120Z,84.52
2023-04-17T04:10:39.552Z,84.49
2023-04-17T04:12:24.960Z,84.42
2023-04-17T04:14:00.955Z,84.27
2023-04-17T04:15:34.427Z,84.44
2023-04-17T04:17:15.319Z,84.29
2023-04-17T04:18:56.748Z,84.23
2023-04-17T04:20:36.828Z,84.40
2023-04-17T04:22:34.243Z,84.84
2023-04-17T04:24:20.283Z,84.64
2023-04-17T04:26:07.353Z,84.46
2023-04-17T04:27:57.066Z,84.61
2023-04-17T04:29:42.883Z,84.85
2023-04-17T04:31:26.258Z,84.65
2023-04-17T04:33:16.168Z,84.88
2023-04-17T04:35:09.631Z,84.50
2023-04-17T04:36:50.846Z,84.52
2023-04-17T04:38:32.073Z,84.39
2023-04-17T04:40:19.809Z,84.64
2023-04-17T04:41:51.429Z,84.55
2023-04-17T04:43:37.541Z,84.63
2023-04-17T04:45:23.240Z,84.73
2023-04-17T04:46:56.864Z,84.69
2023-04-17T04:48:26.256Z,84.67
2023-04-17T04:50:09.400Z,84.61
2023-04-17T04:51:33.810Z,84.80
2023-04-17T04:53:10.455Z,84.84
2023-04-17T04:55:01.036Z,84.62
2023-04-17T04:56:34.400Z,85.08
2023-04-17T04:58:15.255Z,84.75
2023-04-17T04:59:57.106Z,84.70
2023-04-17T05:01:44.743Z,84.62
2023-04-17T05:03:18.064Z,84.61
2023-04-17T05:05:02.222Z,84.57
2023-04-17T05:06:38.915Z,84.82
2023-04-17T05:08:20.392Z,84.65
2023-04-17T05:10:07.663Z,84.47
2023-04-17T05:11:54.390Z,84.54
2023-04-17T05:13:42.102Z,84.65
2023-04-17T05:15:32.501Z,84.83
2023-04-17T05:17:09.942Z,84.76
2023-04-17T05:18:58.152Z,84.88
2023-04-17T05:20:40.297Z,84.60
2023-04-17T05:22:27.535Z,85.17
2023-04-17T05:24:20.844Z,84.47
2023-04-17T05:26:11.546Z,84.74
2023-04-17T05:27:37.484Z,85.03
2023-04-17T05:29:13.533Z,84.50
2023-04-17T05:30:59.402Z,84.87
2023-04-17T05:32:53.900Z,85.05
2023-04-17T05:34:36.316Z,84.67
2023-04-17T05:36:01.574Z,84.34
2023-04-17T05:37:51.203Z,84.57
2023-04-17T05:39:13.279Z,84.51
2023-04-17T05:40:35.162Z,84.41
2023-04-17T05:41:57.518Z,84.64
2023-04-17T05:43:42.679Z,84.87
2023-04-17T05:45:28.027Z,84.59
2023-04-17T05:47:04.325Z,84.48
2023-04-17T05:48:37.292Z,84.57
2023-04-17T05:50:18.940Z,84.35
2023-04-17T05:51:53.115Z,84.19
2023-04-17T05:53:38.269Z,84.73
2023-04-17T05:55:23.764Z,84.44
2023-04-17T05:57:11.363Z,84.54
2023-04-17T05:58:45.102Z,84.61
2023-04-17T06:00:24.754Z,84.81
2023-04-17T06:01:48.902Z,84.39
2023-04-17T06:03:36.515Z,84.15
2023-04-17T06:05:24.212Z,84.15
2023-04-17T06:07:09.794Z,84.24
2023-04-17T06:08:58.075Z,84.26
2023-04-17T06:10:33.539Z,84.32
2023-04-17T06:12:24.529Z,84.01
2023-04-17T06:14:03.085Z,84.58
2023-04-17T06:15:44.960Z,84.34
2023-04-17T06:17:20.970Z,84.10
2023-04-17T06:18:57.017Z,83.75
2023-04-17T06:20:41.999Z,84.17
2023-04-17T06:22:27.601Z,83.94
2023-04-17T06:23:57.190Z,83.69
2023-04-17T06:25:19.087Z,83.93
2023-04-17T06:27:04.704Z,83.97
2023-04-17T06:28:40.168Z,83.66
2023-04-17T06:30:05.400Z,83.84
2023-04-17T06:31:53.501Z,83.63
2023-04-17T06:33:38.114Z,83.48
2023-04-17T06:35:15.209Z,83.46
2023-04-17T06:37:11.460Z,83.60
2023-04-17T06:38:47.580Z,83.74
2023-04-17T06:40:21.571Z,83.82
2023-04-17T06:42:08.204Z,83.39
2023-04-17T06:43:36.991Z,83.44
2023-04-17T06:45:26.997Z,83.48
2023-04-17T06:46:48.702Z,82.96
2023-04-17T06:48:24.540Z,82.70
2023-04-17T06:50:00.717Z,82.59
2023-04-17T06:51:41.675Z,82.85
2023-04-17T06:53:26.887Z,82.60
2023-04-17T06:55:10.165Z,82.71
2023-04-17T06:56:43.761Z,82.67
2023-04-17T06:58:17.153Z,81.95
2023-04-17T06:59:50.614Z,81.71
2023-04-17T07:01:31.406Z,81.47
2023-04-17T07:03:25.182Z,81.84
2023-04-17T07:07:01.133Z,81.94
2023-04-17T07:08:55.681Z,81.28
2023-04-17T07:10:31.136Z,81.45
2023-04-17T07:12:18.850Z,81.38
2023-04-17T07:13:54.661Z,81.16
2023-04-17T07:15:30.442Z,81.12
2023-04-17T07:17:06.332Z,81.09
2023-04-17T07:18:39.645Z,80.64
2023-04-17T07:20:13.221Z,81.04
2023-04-17T07:21:54.120Z,80.68
2023-04-17T07:23:27.434Z,80.02
2023-04-17T07:25:12.746Z,79.86
2023-04-17T07:26:45.940Z,79.37
2023-04-17T07:28:39.941Z,79.71
2023-04-17T07:30:16.064Z,80.14
2023-04-17T07:31:49.527Z,79.91
2023-04-17T07:33:25.564Z,80.19
2023-04-17T07:35:07.125Z,80.23
2023-04-17T07:37:00.480Z,80.41
2023-04-17T07:38:45.437Z,79.37
2023-04-17T07:40:30.572Z,79.25
2023-04-17T07:42:18.071Z,78.77
2023-04-17T07:44:03.437Z,79.12
2023-04-17T07:45:37.578Z,79.51
2023-04-17T07:47:23.933Z,78.81
2023-04-17T07:48:57.748Z,78.95
2023-04-17T07:50:33.315Z,79.12
2023-04-17T07:52:00.159Z,78.60
2023-04-17T07:53:45.441Z,78.67
2023-04-17T07:55:26.582Z,78.41
2023-04-17T07:56:49.415Z,77.64
2023-04-17T07:58:23.090Z,77.68
2023-04-17T08:00:17.272Z,77.65
2023-04-17T08:01:50.773Z,77.29
2023-04-17T08:03:24.488Z,77.30
2023-04-17T08:05:10.026Z,77.27
2023-04-17T08:06:36.153Z,77.97
2023-04-17T08:08:09.727Z,77.47
2023-04-17T08:10:03.418Z,76.94
2023-04-17T08:11:57.920Z,77.16
2023-04-17T08:13:29.656Z,76.37
2023-04-17T08:15:03.486Z,76.14
2023-04-17T08:16:48.876Z,76.40
2023-04-17T08:18:21.890Z,76.68
2023-04-17T08:19:53.492Z,76.62
2023-04-17T08:21:38.478Z,76.48
2023-04-17T08:23:23.710Z,76.57
2023-04-17T08:25:09.612Z,76.33
2023-04-17T08:26:43.031Z,75.51
2023-04-17T08:28:20.820Z,76.02
2023-04-17T08:30:07.185Z,75.67
2023-04-17T08:31:40.480Z,75.40
2023-04-17T08:33:23.006Z,75.82
2023-04-17T08:34:47.085Z,76.13
2023-04-17T08:36:28.330Z,76.07
2023-04-17T08:38:15.007Z,76.65
2023-04-17T08:39:38.839Z,76.11
2023-04-17T08:41:05.663Z,75.83
2023-04-17T08:42:50.601Z,74.64
2023-04-17T08:44:21.958Z,73.93
2023-04-17T08:45:59.042Z,73.46
2023-04-17T08:47:23.291Z,74.53
2023-04-17T08:49:18.167Z,74.76
2023-04-17T08:51:03.576Z,74.14
2023-04-17T08:52:48.682Z,73.16
2023-04-17T08:54:21.986Z,71.79
2023-04-17T08:55:57.983Z,71.78
2023-04-17T08:57:49.181Z,72.07
2023-04-17T08:59:23.966Z,71.03
2023-04-17T09:00:46.055Z,71.19
2023-04-17T09:02:10.374Z,70.90
2023-04-17T09:04:00.541Z,71.32
2023-04-17T09:05:45.920Z,71.35
2023-04-17T09:07:31.106Z,71.28
2023-04-17T09:09:05.098Z,71.36
2023-04-17T09:10:38.741Z,71.49
2023-04-17T09:12:01.136Z,71.75
2023-04-17T09:13:35.342Z,71.74
2023-04-17T09:15:08.812Z,72.19
2023-04-17T09:16:57.132Z,71.34
2023-04-17T09:18:32.880Z,70.92
2023-04-17T09:20:09.152Z,70.45
2023-04-17T09:21:54.610Z,70.78
2023-04-17T09:23:18.666Z,71.02
2023-04-17T09:25:12.609Z,71.05
2023-04-17T09:26:46.378Z,71.74
2023-04-17T09:28:10.264Z,71.76
2023-04-17T09:29:43.694Z,71.59
2023-04-17T09:31:17.234Z,71.32
2023-04-17T09:32:50.609Z,71.04
2023-04-17T09:34:16.859Z,70.96
2023-04-17T09:35:50.987Z,70.87
2023-04-17T09:37:35.886Z,70.90
2023-04-17T09:39:20.822Z,71.08
2023-04-17T09:40:54.400Z,70.72
2023-04-17T09:42:23.559Z,70.73
2023-04-17T09:43:55.712Z,70.39
2023-04-17T09:45:17.857Z,70.72
2023-04-17T09:46:58.574Z,70.31
2023-04-17T09:48:20.279Z,70.24
2023-04-17T09:50:04.547Z,70.81
2023-04-17T09:51:44.865Z,70.25
2023-04-17T09:53:27.152Z,69.65
2023-04-17T09:54:52.133Z,68.70
2023-04-17T09:56:47.089Z,68.21
2023-04-17T09:58:17.008Z,67.74
2023-04-17T09:59:48.718Z,67.95
2023-04-17T10:01:13.204Z,68.50
2023-04-17T10:03:03.314Z,68.45
2023-04-17T10:04:39.212Z,68.49
2023-04-17T10:06:34.044Z,68.66
2023-04-17T10:08:16.889Z,69.24
2023-04-17T10:10:11.144Z,69.00
2023-04-17T10:11:32.794Z,69.02
2023-04-17T10:13:06.986Z,68.97
2023-04-17T10:14:48.219Z,68.10
2023-04-17T10:16:21.534Z,67.34
2023-04-17T10:17:43.543Z,67.10
2023-04-17T10:19:28.610Z,66.91
2023-04-17T10:21:15.197Z,67.17
2023-04-17T10:23:09.033Z,66.80
2023-04-17T10:24:42.644Z,66.39
2023-04-17T10:26:16.039Z,66.25
2023-04-17T10:27:59.144Z,66.29
2023-04-17T10:29:32.025Z,66.53
2023-04-17T10:31:26.054Z,66.48
2023-04-17T10:33:13.980Z,66.00
2023-04-17T10:35:09.265Z,66.05
2023-04-17T10:36:51.953Z,65.28
2023-04-17T10:38:27.078Z,65.26
2023-04-17T10:40:04.202Z,65.36
2023-04-17T10:41:48.945Z,65.68
2023-04-17T10:43:23.607Z,66.01
2023-04-17T10:45:08.895Z,65.92
2023-04-17T10:46:44.677Z,66.29
2023-04-17T10:48:06.708Z,66.10
2023-04-17T10:49:35.811Z,66.47
2023-04-17T10:51:17.427Z,66.44
2023-04-17T10:52:42.184Z,66.82
2023-04-17T10:54:18.140Z,66.82
2023-04-17T10:55:51.909Z,67.16
2023-04-17T10:57:13.549Z,67.24
2023-04-17T10:58:50.113Z,67.86
2023-04-17T11:00:31.150Z,67.72
2023-04-17T11:02:21.686Z,67.39
2023-04-17T11:03:54.806Z,66.89
2023-04-17T11:05:39.762Z,66.66
2023-04-17T11:07:24.823Z,66.53
2023-04-17T11:09:09.852Z,67.06
2023-04-17T11:10:41.398Z,67.19
2023-04-17T11:12:26.408Z,67.67
2023-04-17T11:14:14.226Z,67.57
2023-04-17T11:15:58.579Z,67.28
2023-04-17T11:17:31.918Z,67.54
2023-04-17T11:19:17.992Z,68.10
2023-04-17T11:20:51.718Z,68.17
2023-04-17T11:22:25.395Z,67.77
2023-04-17T11:23:59.322Z,67.54
2023-04-17T11:25:23.547Z,67.74
2023-04-17T11:26:59.485Z,68.50
2023-04-17T11:28:32.984Z,68.54
2023-04-17T11:30:09.047Z,67.80
2023-04-17T11:31:44.717Z,68.13
2023-04-17T11:33:18.492Z,68.14
2023-04-17T11:35:08.161Z,67.90
2023-04-17T11:36:41.470Z,67.34
2023-04-17T11:38:17.538Z,67.15
2023-04-17T11:39:51.679Z,67.41
2023-04-17T11:41:23.697Z,67.25
2023-04-17T11:43:11.131Z,66.57
2023-04-17T11:44:44.460Z,66.52
2023-04-17T11:46:25.451Z,66.37
2023-04-17T11:48:02.201Z,67.25
2023-04-17T11:49:37.810Z,68.09
2023-04-17T11:51:13.864Z,68.63
2023-04-17T11:52:47.855Z,69.34
2023-04-17T11:54:29.032Z,70.11
2023-04-17T11:56:02.697Z,70.62
2023-04-17T11:57:50.540Z,71.21
2023-04-17T11:59:24.094Z,71.50
2023-04-17T12:00:57.555Z,72.10
2023-04-17T12:02:21.673Z,71.97
2023-04-17T12:03:50.615Z,72.39
2023-04-17T12:05:24.165Z,72.83
2023-04-17T12:07:14.494Z,72.75
2023-04-17T12:08:50.353Z,72.74
2023-04-17T12:10:14.436Z,72.81
2023-04-17T12:11:56.890Z,73.10
2023-04-17T12:13:42.176Z,73.33
2023-04-17T12:15:23.231Z,73.55
2023-04-17T12:16:56.589Z,73.38
2023-04-17T12:18:29.654Z,73.48
2023-04-17T12:20:24.343Z,73.50
2023-04-17T12:22:04.794Z,73.37
2023-04-17T12:23:50.992Z,73.73
2023-04-17T12:25:27.178Z,73.82
2023-04-17T12:27:09.155Z,74.21
2023-04-17T12:28:58.222Z,74.22
2023-04-17T12:30:51.681Z,74.76
2023-04-17T12:32:32.492Z,74.77
2023-04-17T12:34:18.180Z,74.92
2023-04-17T12:35:51.912Z,74.93
2023-04-17T12:37:25.609Z,75.57
2023-04-17T12:38:52.436Z,75.79
2023-04-17T12:40:14.331Z,75.78
2023-04-17T12:42:00.002Z,76.17
2023-04-17T12:43:35.742Z,76.04
2023-04-17T12:45:20.210Z,76.16
2023-04-17T12:47:15.296Z,75.75
2023-04-17T12:49:00.788Z,75.94
2023-04-17T12:50:46.402Z,75.92
2023-04-17T12:52:08.551Z,75.77
2023-04-17T12:53:53.863Z,75.50
2023-04-17T12:55:38.526Z,75.59
2023-04-17T12:57:11.531Z,75.26
2023-04-17T12:58:45.354Z,75.01
2023-04-17T13:00:07.275Z,74.92
2023-04-17T13:01:43.629Z,75.18
2023-04-17T13:03:17.898Z,74.87
2023-04-17T13:05:03.303Z,74.87
2023-04-17T13:06:27.105Z,74.46
2023-04-17T13:08:22.216Z,74.70
2023-04-17T13:09:58.167Z,75.07
2023-04-17T13:11:33.751Z,74.31
2023-04-17T13:13:07.267Z,73.83
2023-04-17T13:14:43.510Z,74.21
2023-04-17T13:16:17.208Z,74.18
2023-04-17T13:17:58.092Z,74.06
2023-04-17T13:19:31.850Z,73.24
2023-04-17T13:21:06.544Z,73.15
2023-04-17T13:23:01.198Z,72.87
2023-04-17T13:24:54.619Z,72.79
2023-04-17T13:26:25.804Z,73.04
2023-04-17T13:28:09.218Z,73.24
2023-04-17T13:29:43.010Z,72.36
2023-04-17T13:31:28.311Z,72.57
2023-04-17T13:35:09.075Z,71.32
2023-04-17T13:36:44.934Z,71.12
2023-04-17T13:38:30.398Z,70.85
2023-04-17T13:40:05.474Z,71.22
2023-04-17T13:41:26.976Z,70.62
2023-04-17T13:43:08.816Z,70.94
2023-04-17T13:44:44.385Z,70.20
2023-04-17T13:46:18.210Z,69.24
2023-04-17T13:48:13.294Z,68.66
2023-04-17T13:49:51.997Z,68.52
2023-04-17T13:51:32.462Z,68.93
2023-04-17T13:53:04.354Z,67.85
2023-04-17T13:54:26.196Z,67.13
2023-04-17T13:56:00.010Z,66.94
2023-04-17T13:57:53.236Z,67.20
2023-04-17T13:59:28.717Z,65.85
2023-04-17T14:00:57.910Z,66.02
2023-04-17T14:02:33.649Z,66.57
2023-04-17T14:04:17.354Z,66.70
2023-04-17T14:05:53.898Z,65.86
2023-04-17T14:07:29.946Z,65.43
2023-04-17T14:08:54.204Z,64.96
2023-04-17T14:10:39.232Z,65.04
2023-04-17T14:12:34.167Z,64.93
2023-04-17T14:14:07.746Z,65.68
2023-04-17T14:15:54.924Z,65.56
2023-04-17T14:17:27.839Z,65.12
2023-04-17T14:19:14.685Z,64.86
2023-04-17T14:21:00.576Z,65.92
2023-04-17T14:22:45.601Z,65.86
2023-04-17T14:24:19.122Z,64.88
2023-04-17T14:25:52.911Z,64.57
2023-04-17T14:27:28.424Z,64.02
2023-04-17T14:29:01.948Z,64.03
2023-04-17T14:30:23.969Z,64.91
2023-04-17T14:31:58.201Z,65.14
2023-04-17T14:33:31.773Z,65.18
2023-04-17T14:34:55.819Z,64.41
2023-04-17T14:36:31.259Z,64.59
2023-04-17T14:38:13.105Z,64.72
2023-04-17T14:39:49.542Z,64.59
2023-04-17T14:41:34.892Z,64.82
2023-04-17T14:43:11.773Z,65.13
2023-04-17T14:44:45.630Z,65.73
2023-04-17T14:46:27.928Z,65.68
2023-04-17T14:48:13.268Z,64.84
2023-04-17T14:49:47.192Z,65.21
2023-04-17T14:51:31.950Z,65.03
2023-04-17T14:53:04.371Z,65.16
2023-04-17T14:54:28.150Z,65.13
2023-04-17T14:56:03.710Z,65.63
2023-04-17T14:57:25.833Z,66.16
2023-04-17T14:59:06.506Z,67.09
2023-04-17T15:00:32.894Z,67.29
2023-04-17T15:01:55.690Z,68.18
2023-04-17T15:03:50.285Z,68.91
2023-04-17T15:05:28.192Z,69.88
2023-04-17T15:07:10.650Z,70.66
2023-04-17T15:09:05.182Z,71.42
2023-04-17T15:10:50.801Z,72.16
2023-04-17T15:12:33.191Z,72.36
2023-04-17T15:13:57.487Z,73.08
2023-04-17T15:15:22.024Z,73.62
2023-04-17T15:16:51.317Z,73.96
2023-04-17T15:18:27.182Z,73.86
2023-04-17T15:20:09.269Z,74.03
2023-04-17T15:21:33.250Z,74.22
2023-04-17T15:23:19.746Z,74.49
2023-04-17T15:25:05.207Z,74.47
2023-04-17T15:26:27.387Z,74.47
2023-04-17T15:27:49.062Z,74.16
2023-04-17T15:29:21.832Z,74.31
2023-04-17T15:30:45.898Z,74.81
2023-04-17T15:32:14.796Z,75.08
2023-04-17T15:34:00.209Z,74.90
2023-04-17T15:35:33.206Z,74.98
2023-04-17T15:37:07.191Z,75.45
2023-04-17T15:38:48.344Z,75.40
2023-04-17T15:40:19.810Z,75.73
2023-04-17T15:44:25.177Z,75.82
2023-04-17T15:46:18.991Z,76.29
2023-04-17T15:48:04.039Z,76.85
2023-04-17T15:49:33.130Z,76.88
2023-04-17T15:51:15.244Z,76.80
2023-04-17T15:53:05.178Z,76.80
2023-04-17T15:54:26.948Z,76.99
2023-04-17T15:56:20.374Z,77.22
2023-04-17T15:57:56.045Z,77.77
2023-04-17T15:59:41.185Z,77.49
2023-04-17T16:01:26.493Z,77.81
2023-04-17T16:03:19.765Z,78.12
2023-04-17T16:05:05.384Z,78.34
2023-04-17T16:06:29.677Z,78.09
2023-04-17T16:08:01.293Z,78.64
2023-04-17T16:09:46.516Z,78.58
2023-04-17T16:11:20.714Z,78.57
2023-04-17T16:13:15.168Z,78.86
2023-04-17T16:14:50.759Z,79.09
2023-04-17T16:16:27.177Z,79.20
2023-04-17T16:18:00.871Z,79.56
2023-04-17T16:19:36.515Z,79.56
2023-04-17T16:21:06.223Z,79.55
2023-04-17T16:22:39.655Z,79.43
2023-04-17T16:24:13.149Z,79.69
2023-04-17T16:25:57.995Z,79.58
2023-04-17T16:27:48.044Z,79.84
2023-04-17T16:29:12.193Z,79.74
2023-04-17T16:30:47.750Z,79.62
2023-04-17T16:32:32.826Z,80.21
2023-04-17T16:34:06.410Z,80.18
2023-04-17T16:35:39.728Z,80.08
2023-04-17T16:37:24.840Z,80.31
2023-04-17T16:39:19.181Z,80.64
2023-04-17T16:41:11.168Z,80.43
2023-04-17T16:42:44.668Z,80.63
2023-04-17T16:44:14.502Z,80.65
2023-04-17T16:45:38.411Z,80.81
2023-04-17T16:48:39.960Z,80.46
2023-04-17T16:50:14.157Z,80.79
2023-04-17T16:51:35.864Z,80.76
2023-04-17T16:52:58.052Z,81.02
2023-04-17T16:54:39.110Z,80.82
2023-04-17T16:56:24.486Z,80.45
2023-04-17T16:58:09.242Z,80.94
2023-04-17T16:59:54.555Z,81.36
2023-04-17T17:01:28.211Z,80.79
2023-04-17T17:02:50.569Z,80.87
2023-04-17T17:04:20.237Z,81.08
2023-04-17T17:05:46.488Z,81.22
2023-04-17T17:07:16.298Z,81.26
2023-04-17T17:08:49.856Z,81.22
2023-04-17T17:10:23.541Z,81.22
2023-04-17T17:11:57.039Z,81.28
2023-04-17T17:13:19.043Z,81.17
2023-04-17T17:14:45.687Z,81.33
2023-04-17T17:16:21.587Z,81.39
2023-04-17T17:17:43.630Z,81.17
2023-04-17T17:19:05.939Z,80.71
2023-04-17T17:20:35.267Z,81.20
2023-04-17T17:21:57.344Z,80.95
2023-04-17T17:23:32.213Z,81.20
2023-04-17T17:25:14.258Z,81.26
2023-04-17T17:26:37.065Z,81.39
2023-04-17T17:28:01.865Z,81.12
2023-04-17T17:29:33.616Z,81.38
2023-04-17T17:30:56.231Z,81.25
2023-04-17T17:32:29.492Z,81.39
2023-04-17T17:35:53.083Z,81.15
2023-04-17T17:37:25.229Z,81.71
2023-04-17T17:39:00.248Z,81.64
2023-04-17T17:40:29.646Z,81.62
2023-04-17T17:41:51.568Z,81.65
2023-04-17T17:43:13.477Z,81.92
2023-04-17T17:44:49.176Z,81.74
2023-04-17T17:46:34.303Z,81.62
2023-04-17T17:48:21.663Z,81.87
2023-04-17T17:49:57.009Z,81.95
2023-04-17T17:51:37.927Z,81.78
2023-04-17T17:53:26.388Z,81.95
2023-04-17T17:54:53.795Z,81.81
2023-04-17T17:56:38.649Z,82.02
2023-04-17T17:58:24.619Z,82.23
2023-04-17T17:59:51.660Z,82.06
2023-04-17T18:01:16.329Z,81.93
2023-04-17T18:03:02.128Z,82.10
2023-04-17T18:04:36.238Z,82.07
2023-04-17T18:06:21.737Z,81.99
2023-04-17T18:08:02.707Z,81.88
2023-04-17T18:09:36.582Z,82.24
2023-04-17T18:11:22.130Z,81.90
2023-04-17T18:13:05.202Z,82.04
2023-04-17T18:14:42.117Z,81.94
2023-04-17T18:16:27.191Z,82.06
2023-04-17T18:18:01.224Z,82.12
2023-04-17T18:19:42.117Z,82.54
2023-04-17T18:21:23.462Z,82.14
2023-04-17T18:22:59.143Z,82.42
2023-04-17T18:24:32.928Z,82.62
2023-04-17T18:26:26.629Z,82.32
2023-04-17T18:28:11.904Z,82.30
2023-04-17T18:29:47.418Z,82.30
2023-04-17T18:31:21.859Z,82.09
2023-04-17T18:32:44.730Z,82.49
2023-04-17T18:34:30.593Z,82.60
2023-04-17T18:36:06.649Z,82.24
2023-04-17T18:37:47.780Z,82.45
2023-04-17T18:39:21.663Z,82.42
2023-04-17T18:41:02.614Z,82.01
2023-04-17T18:42:26.822Z,81.87
2023-04-17T18:44:10.329Z,82.28
2023-04-17T18:47:58.320Z,81.89
2023-04-17T18:49:30.076Z,82.14
2023-04-17T18:51:15.484Z,82.28
2023-04-17T18:53:00.748Z,82.09
2023-04-17T18:54:30.708Z,82.04
2023-04-17T18:56:16.248Z,81.97
2023-04-17T18:57:52.508Z,81.50
2023-04-17T18:59:26.387Z,81.82
2023-04-17T19:01:13.416Z,81.59
2023-04-17T19:02:55.592Z,81.80
2023-04-17T19:04:31.636Z,81.83
2023-04-17T19:06:14.284Z,81.49
2023-04-17T19:08:00.122Z,81.69
2023-04-17T19:09:31.627Z,81.35
2023-04-17T19:11:25.415Z,81.67
2023-04-17T19:13:20.252Z,81.59
2023-04-17T19:15:10.679Z,81.02
2023-04-17T19:16:47.454Z,81.23
2023-04-17T19:18:32.656Z,80.76
2023-04-17T19:20:08.832Z,80.77
2023-04-17T19:21:41.044Z,81.11
2023-04-17T19:23:20.622Z,80.82
2023-04-17T19:24:42.109Z,80.58
2023-04-17T19:26:09.169Z,80.59
2023-04-17T19:27:43.246Z,80.86
2023-04-17T19:29:25.699Z,80.69
2023-04-17T19:31:00.844Z,80.55
2023-04-17T19:32:41.945Z,80.75
2023-04-17T19:34:15.877Z,80.27
2023-04-17T19:35:49.495Z,80.52
2023-04-17T19:37:34.552Z,80.49
2023-04-17T19:38:59.758Z,80.45
2023-04-17T19:40:33.186Z,80.22
2023-04-17T19:42:15.847Z,80.19
2023-04-17T19:43:49.683Z,80.26
2023-04-17T19:45:21.776Z,79.94
2023-04-17T19:47:10.280Z,79.38
2023-04-17T19:48:44.505Z,79.36
2023-04-17T19:50:18.109Z,78.85
2023-04-17T19:53:56.688Z,79.35
2023-04-17T19:55:42.397Z,79.46
2023-04-17T19:57:16.300Z,79.01
2023-04-17T19:59:11.649Z,79.14
2023-04-17T20:00:41.881Z,78.91
2023-04-17T20:02:07.478Z,79.00
2023-04-17T20:03:52.119Z,79.00
2023-04-17T20:05:46.152Z,79.06
2023-04-17T20:07:40.696Z,78.41
2023-04-17T20:09:23.117Z,78.87
2023-04-17T20:10:56.567Z,78.74
2023-04-17T20:12:41.575Z,78.63
2023-04-17T20:14:15.750Z,78.37
2023-04-17T20:16:10.679Z,78.37
2023-04-17T20:17:55.507Z,77.99
2023-04-17T20:19:41.004Z,78.37
2023-04-17T20:21:17.146Z,78.22
2023-04-17T20:22:52.772Z,78.34
2023-04-17T20:24:37.763Z,78.52
2023-04-17T20:26:22.776Z,78.37
2023-04-17T20:27:59.823Z,78.55
2023-04-17T20:29:44.764Z,78.68
2023-04-17T20:31:21.009Z,78.40
2023-04-17T20:33:06.436Z,78.32
2023-04-17T20:34:41.381Z,78.05
2023-04-17T20:36:11.067Z,77.90
2023-04-17T20:37:44.196Z,77.98
2023-04-17T20:39:29.586Z,78.28
2023-04-17T20:40:54.618Z,78.15
2023-04-17T20:42:39.279Z,78.07
2023-04-17T20:44:33.687Z,77.86
2023-04-17T20:46:07.320Z,78.25
2023-04-17T20:47:56.887Z,77.93
2023-04-17T20:49:42.445Z,77.70
2023-04-17T20:51:27.566Z,77.52
2023-04-17T20:52:52.170Z,77.26
2023-04-17T20:54:26.393Z,77.16
2023-04-17T20:55:48.650Z,77.60
2023-04-17T20:57:12.887Z,77.75
2023-04-17T20:58:53.081Z,77.57
2023-04-17T21:00:22.269Z,77.35
2023-04-17T21:01:46.427Z,77.53
2023-04-17T21:03:10.502Z,77.48
2023-04-17T21:04:51.265Z,77.35
2023-04-17T21:06:17.734Z,77.57
2023-04-17T21:07:41.656Z,77.69
2023-04-17T21:09:13.809Z,77.47
2023-04-17T21:10:35.591Z,77.41
2023-04-17T21:12:20.985Z,77.42
2023-04-17T21:13:54.799Z,77.69
2023-04-17T21:15:23.999Z,77.61
2023-04-17T21:16:50.379Z,77.51
2023-04-17T21:18:14.328Z,78.09
2023-04-17T21:20:01.595Z,78.15